Time;durP1;ratioP1;P1;durP2;ratioP2;P2;SDS_P1;SDS_P2;PMS_P1;PMS_P2;Temp;Humidity;BMP_temperature;BMP_pressure;BME280_temperature;BME280_humidity;BME280_pressure;Samples;Min_cycle;Max_cycle;Signal;HPM_P1;HPM_P2
2022/06/20 00:02:55;;;;;;;2.20;1.63;;;;;;;19.68;54.61;96148.97;9922371;29;20384;-51
2022/06/20 00:08:16;;;;;;;2.90;1.70;;;;;;;19.68;54.73;96147.06;9938123;29;20068;-52
2022/06/20 00:13:35;;;;;;;1.48;1.35;;;;;;;19.69;54.77;96139.75;9942982;29;20055;-51
2022/06/20 00:18:54;;;;;;;2.00;1.80;;;;;;;19.68;54.85;96135.44;9940835;29;20071;-48
2022/06/20 00:24:14;;;;;;;2.20;1.77;;;;;;;19.69;54.90;96134.34;9940434;29;20066;-52
2022/06/20 00:29:34;;;;;;;3.00;1.52;;;;;;;19.69;54.83;96131.63;9940203;29;20065;-49
2022/06/20 00:34:53;;;;;;;1.75;1.38;;;;;;;19.69;54.93;96132.41;9937821;29;20066;-51
2022/06/20 00:40:41;;;;;;;1.50;1.40;;;;;;;19.71;54.89;96132.09;9946266;29;20097;-51
2022/06/20 00:46:05;;;;;;;1.90;1.60;;;;;;;19.69;55.04;96120.84;9947503;29;20461;-51
2022/06/20 00:51:45;;;;;;;1.92;1.40;;;;;;;19.69;55.13;96116.22;9943088;29;20059;-52
2022/06/20 00:57:13;;;;;;;2.28;1.73;;;;;;;19.70;54.99;96117.00;9960604;29;20527;-52
2022/06/20 01:02:36;;;;;;;1.67;1.47;;;;;;;19.70;55.16;96125.13;9949806;29;20062;-49
2022/06/20 01:07:58;;;;;;;2.47;1.60;;;;;;;19.70;55.09;96125.13;9932316;29;20065;-49
2022/06/20 01:13:20;;;;;;;1.52;1.42;;;;;;;19.70;55.13;96120.50;9934924;29;20137;-50
2022/06/20 01:18:45;;;;;;;1.75;1.40;;;;;;;19.71;55.18;96121.28;9941132;29;20070;-51
2022/06/20 01:24:32;;;;;;;1.88;1.58;;;;;;;19.71;55.24;96124.78;9955358;29;20065;-49
2022/06/20 01:29:52;;;;;;;2.03;1.60;;;;;;;19.72;55.28;96131.00;9950085;29;20058;-52
2022/06/20 01:37:23;;;;;;;2.33;1.77;;;;;;;19.72;55.36;96128.28;9952177;29;20063;-51
2022/06/20 01:46:33;;;;;;;1.67;1.50;;;;;;;19.72;55.32;96122.91;9964394;29;20510;-50
2022/06/20 01:52:27;;;;;;;2.05;1.45;;;;;;;19.72;55.36;96131.00;9961200;29;20066;-51
2022/06/20 01:57:49;;;;;;;1.70;1.60;;;;;;;19.73;55.33;96132.56;9957199;29;20055;-50
2022/06/20 02:03:13;;;;;;;3.13;1.63;;;;;;;19.72;55.38;96126.38;9936436;29;20364;-52
2022/06/20 02:08:35;;;;;;;1.73;1.40;;;;;;;19.73;55.40;96124.44;9922556;29;20055;-52
2022/06/20 02:14:00;;;;;;;1.80;1.52;;;;;;;19.74;55.42;96120.63;9934102;29;20062;-52
2022/06/20 02:19:31;;;;;;;1.80;1.50;;;;;;;19.73;55.34;96127.16;9923088;29;20071;-49
2022/06/20 02:24:54;;;;;;;2.70;1.35;;;;;;;19.72;55.33;96126.38;9934187;29;20386;-50
2022/06/20 02:30:14;;;;;;;1.40;1.30;;;;;;;19.73;55.39;96130.63;9936808;29;20761;-49
2022/06/20 02:35:35;;;;;;;2.05;1.67;;;;;;;19.73;55.38;96141.44;9935347;29;20090;-52
2022/06/20 02:40:56;;;;;;;1.60;1.40;;;;;;;19.74;55.43;96144.97;9934105;29;20466;-49
2022/06/20 02:46:18;;;;;;;1.95;1.40;;;;;;;19.74;55.38;96139.56;9952050;29;20050;-49
2022/06/20 02:51:40;;;;;;;1.98;1.50;;;;;;;19.75;55.49;96141.91;9955421;29;20058;-52
2022/06/20 02:57:08;;;;;;;1.40;1.30;;;;;;;19.75;55.41;96143.81;9925122;29;20070;-48
2022/06/20 03:02:30;;;;;;;2.67;1.30;;;;;;;19.74;55.41;96145.75;9958376;29;20150;-51
2022/06/20 03:07:51;;;;;;;3.25;1.50;;;;;;;19.74;55.51;96144.97;9951566;29;20063;-51
2022/06/20 03:13:11;;;;;;;2.00;1.55;;;;;;;19.75;55.56;96135.72;9947489;29;20570;-51
2022/06/20 03:18:34;;;;;;;1.50;1.40;;;;;;;19.76;55.44;96134.59;9943248;29;20058;-51
2022/06/20 03:23:53;;;;;;;1.65;1.38;;;;;;;19.75;55.66;96141.13;9917466;29;20066;-51
2022/06/20 03:29:15;;;;;;;1.70;1.40;;;;;;;19.75;55.47;96147.28;9929891;29;20131;-52
2022/06/20 03:34:35;;;;;;;1.77;1.42;;;;;;;19.75;55.55;96127.59;9927087;29;20058;-51
2022/06/20 03:39:54;;;;;;;1.52;1.40;;;;;;;19.75;55.51;96133.00;9925278;29;20070;-50
2022/06/20 03:45:14;;;;;;;1.60;1.50;;;;;;;19.76;55.56;96131.88;9919988;29;20063;-51
2022/06/20 03:50:38;;;;;;;1.40;1.30;;;;;;;19.77;55.48;96144.25;9927523;29;20062;-51
2022/06/20 03:56:11;;;;;;;1.27;1.17;;;;;;;19.76;55.54;96142.69;9941432;29;20054;-50
2022/06/20 04:01:36;;;;;;;1.73;1.60;;;;;;;19.76;55.60;96148.09;9939664;29;20419;-49
2022/06/20 04:06:59;;;;;;;2.72;1.40;;;;;;;19.78;55.60;96145.03;9936030;29;20054;-50
2022/06/20 04:12:21;;;;;;;1.45;1.35;;;;;;;19.78;55.58;96150.44;9946786;29;20111;-49
2022/06/20 04:23:39;;;;;;;6.30;3.33;;;;;;;19.79;59.28;96133.91;9961197;29;20145;-51
2022/06/20 04:29:07;;;;;;;8.48;3.70;;;;;;;19.82;59.84;96132.44;9935605;29;20067;-50
2022/06/20 04:34:47;;;;;;;4.57;3.38;;;;;;;19.83;60.07;96128.59;9943090;29;20596;-52
2022/06/20 04:40:23;;;;;;;5.72;3.53;;;;;;;19.83;60.07;96115.84;9949581;29;20059;-51
2022/06/20 04:45:49;;;;;;;5.25;3.22;;;;;;;19.85;60.20;96110.13;9961506;29;20063;-52
2022/06/20 04:51:10;;;;;;;3.50;3.20;;;;;;;19.85;59.78;96102.78;9950289;29;20063;-52
2022/06/20 04:56:29;;;;;;;4.05;3.60;;;;;;;19.87;59.82;96094.34;9948933;29;20055;-50
2022/06/20 05:01:49;;;;;;;4.45;3.33;;;;;;;19.88;59.42;96094.00;9953588;29;20079;-52
2022/06/20 05:07:21;;;;;;;5.28;3.42;;;;;;;19.87;58.92;96089.72;9942414;29;20054;-52
2022/06/20 05:13:07;;;;;;;4.72;3.25;;;;;;;19.88;59.01;96085.13;9941380;29;20055;-52
2022/06/20 05:18:41;;;;;;;7.05;3.63;;;;;;;19.88;58.73;96087.81;9920200;29;20058;-49
2022/06/20 05:24:06;;;;;;;12.43;4.38;;;;;;;19.89;58.65;96083.97;9954264;29;20047;-52
2022/06/20 05:29:31;;;;;;;12.68;5.30;;;;;;;19.89;58.66;96089.38;9945543;29;20046;-52
2022/06/20 05:35:02;;;;;;;18.40;6.65;;;;;;;19.90;58.49;96093.66;9931304;29;20051;-52
2022/06/20 05:40:39;;;;;;;12.98;6.00;;;;;;;19.90;58.50;96086.34;9922088;29;20058;-52
2022/06/20 05:46:06;;;;;;;16.25;6.90;;;;;;;19.91;58.39;96081.72;9924246;29;20061;-50
2022/06/20 05:51:26;;;;;;;15.85;6.50;;;;;;;19.91;58.39;96079.00;9950010;29;20047;-52
2022/06/20 05:56:49;;;;;;;14.40;6.35;;;;;;;19.91;58.35;96071.69;9922909;29;20572;-49
2022/06/20 06:02:17;;;;;;;14.35;6.15;;;;;;;19.91;58.36;96062.78;9919636;29;20065;-51
2022/06/20 06:07:42;;;;;;;13.93;6.53;;;;;;;19.91;58.28;96051.97;9939908;29;20058;-53
2022/06/20 06:13:17;;;;;;;12.80;5.70;;;;;;;19.91;58.40;96052.75;9938790;29;20111;-52
2022/06/20 06:18:43;;;;;;;11.05;5.90;;;;;;;19.90;58.35;96048.50;9936185;29;20082;-52
2022/06/20 06:24:05;;;;;;;14.40;5.93;;;;;;;19.91;58.30;96033.84;9940505;29;20077;-52
2022/06/20 06:29:42;;;;;;;10.98;5.53;;;;;;;19.91;58.39;96047.34;9931823;29;20065;-52
2022/06/20 06:35:07;;;;;;;11.27;5.50;;;;;;;19.92;58.47;96053.56;9929977;29;20062;-52
2022/06/20 06:40:41;;;;;;;9.90;5.32;;;;;;;19.92;58.49;96034.66;9953183;29;20058;-49
2022/06/20 06:46:01;;;;;;;9.40;5.50;;;;;;;19.91;58.63;96039.25;9933796;29;20455;-52
2022/06/20 06:51:28;;;;;;;12.60;5.60;;;;;;;19.91;58.43;96066.28;9954676;29;20059;-52
2022/06/20 06:56:52;;;;;;;10.23;5.40;;;;;;;19.91;58.43;96041.94;9927884;29;20469;-52
2022/06/20 07:02:15;;;;;;;11.35;5.63;;;;;;;19.92;58.45;96048.94;9940677;29;20487;-51
2022/06/20 07:07:43;;;;;;;9.75;5.63;;;;;;;19.93;58.58;96047.00;9939673;29;20073;-52
2022/06/20 07:13:16;;;;;;;10.03;5.80;;;;;;;19.93;58.52;96055.94;9950628;29;20059;-52
2022/06/20 07:18:42;;;;;;;11.55;5.60;;;;;;;19.93;58.67;96201.91;9938796;29;20385;-52
2022/06/20 07:24:06;;;;;;;8.73;5.47;;;;;;;19.94;58.62;96225.09;9931180;29;20562;-49
2022/06/20 07:29:34;;;;;;;9.70;5.90;;;;;;;19.95;58.62;96251.03;9951520;29;20066;-50
2022/06/20 07:34:58;;;;;;;12.57;5.17;;;;;;;19.94;58.47;96186.47;9943581;29;20146;-52
2022/06/20 07:40:20;;;;;;;12.77;5.80;;;;;;;19.94;58.56;96164.84;9928584;29;20063;-52
2022/06/20 07:45:42;;;;;;;9.25;5.38;;;;;;;19.94;58.54;96186.47;9960757;29;20267;-51
2022/06/20 07:51:21;;;;;;;9.70;5.93;;;;;;;19.93;58.60;96153.25;9971594;29;20132;-51
2022/06/20 07:57:02;;;;;;;10.37;5.83;;;;;;;19.93;58.66;96137.03;9954872;29;20525;-52
2022/06/20 08:02:28;;;;;;;9.48;5.30;;;;;;;19.94;58.53;96111.56;9939757;29;20170;-52
2022/06/20 08:07:52;;;;;;;8.45;5.45;;;;;;;19.93;58.50;96066.75;9954471;29;20111;-52
2022/06/20 08:13:22;;;;;;;8.32;5.22;;;;;;;19.95;58.49;96050.97;9947785;29;20055;-51
2022/06/20 08:18:42;;;;;;;9.68;5.30;;;;;;;19.93;58.48;96012.69;9943060;29;20062;-52
2022/06/20 08:24:08;;;;;;;9.95;5.35;;;;;;;19.94;58.44;95995.31;9931416;29;20059;-50
2022/06/20 08:29:34;;;;;;;8.02;5.22;;;;;;;19.95;58.57;96045.56;9924874;29;20063;-53
2022/06/20 08:35:08;;;;;;;5.97;4.30;;;;;;;19.96;58.38;96086.88;9947873;29;20062;-51
2022/06/20 08:40:55;;;;;;;5.28;4.30;;;;;;;19.97;58.20;96179.59;9952746;29;20066;-53
2022/06/20 08:46:26;;;;;;;6.93;4.47;;;;;;;19.95;58.13;96186.13;9958590;29;20423;-53
2022/06/20 08:52:24;;;;;;;6.63;4.72;;;;;;;19.95;57.93;96137.47;9942990;29;20066;-53
2022/06/20 08:57:59;;;;;;;6.32;4.78;;;;;;;19.97;57.88;96174.19;9965196;29;20055;-53
2022/06/20 09:03:55;;;;;;;5.68;4.75;;;;;;;19.96;57.89;96154.47;9959222;29;20755;-53
2022/06/20 09:09:31;;;;;;;8.60;5.20;;;;;;;19.97;57.88;96158.75;9962366;29;20070;-53
2022/06/20 09:15:02;;;;;;;8.32;5.15;;;;;;;19.97;57.82;96157.97;9945974;29;20070;-53
2022/06/20 09:20:30;;;;;;;6.85;5.05;;;;;;;19.98;57.81;96137.91;9930636;29;20542;-50
2022/06/20 09:26:05;;;;;;;9.20;5.03;;;;;;;19.99;57.73;96131.38;9960151;29;20058;-52
2022/06/20 09:31:53;;;;;;;6.50;5.10;;;;;;;19.98;57.79;96083.84;9934796;29;20067;-53
2022/06/20 09:37:51;;;;;;;6.23;4.87;;;;;;;20.00;57.80;96070.78;9949182;29;20054;-53
2022/06/20 09:43:31;;;;;;;7.38;4.78;;;;;;;20.00;57.75;96057.25;9864522;29;20058;-51
2022/06/20 09:49:00;;;;;;;5.43;4.38;;;;;;;20.00;57.86;96041.81;9944838;29;20081;-53
2022/06/20 09:54:57;;;;;;;6.75;4.70;;;;;;;20.01;57.81;96056.09;9929808;29;20059;-53
2022/06/20 10:00:19;;;;;;;6.45;4.20;;;;;;;20.01;57.81;96093.97;9952400;29;20127;-54
2022/06/20 10:06:00;;;;;;;6.47;4.50;;;;;;;20.01;57.83;96119.06;9962755;29;20050;-53
2022/06/20 10:11:25;;;;;;;6.70;4.45;;;;;;;20.01;57.87;96135.28;9968897;29;20431;-51
2022/06/20 10:16:57;;;;;;;6.65;5.10;;;;;;;20.02;57.84;96144.22;9965906;29;20111;-53
2022/06/20 10:22:40;;;;;;;6.93;4.90;;;;;;;20.01;57.74;96169.66;9966538;29;20057;-53
2022/06/20 10:28:16;;;;;;;6.57;4.45;;;;;;;20.00;57.89;96185.09;9937835;29;20084;-52
2022/06/20 10:33:46;;;;;;;6.15;4.15;;;;;;;20.01;57.89;96196.69;9963330;29;20066;-52
2022/06/20 10:39:11;;;;;;;5.90;4.80;;;;;;;20.01;57.96;96185.88;9950676;29;20058;-53
2022/06/20 10:44:43;;;;;;;7.53;5.07;;;;;;;20.03;57.78;96180.91;9924966;29;20419;-53
2022/06/20 10:50:12;;;;;;;6.38;4.68;;;;;;;20.02;57.84;96177.44;9953585;29;20066;-53
2022/06/20 10:56:05;;;;;;;6.22;4.43;;;;;;;20.03;57.88;96189.03;9995664;29;20061;-53
2022/06/20 11:01:48;;;;;;;4.20;3.80;;;;;;;20.03;57.84;96181.72;9950645;29;20077;-54
2022/06/20 11:07:22;;;;;;;6.28;4.32;;;;;;;20.04;57.84;96169.00;9973290;29;20062;-51
2022/06/20 11:13:08;;;;;;;5.43;4.43;;;;;;;20.03;57.78;96167.41;9957638;29;20434;-52
2022/06/20 11:18:36;;;;;;;6.03;4.30;;;;;;;20.04;57.90;96158.16;9971328;29;20431;-52
2022/06/20 11:24:14;;;;;;;5.55;4.10;;;;;;;20.05;57.75;96146.22;9995847;29;20061;-54
2022/06/20 11:29:43;;;;;;;4.43;4.03;;;;;;;20.05;57.84;96143.50;9961078;29;20114;-53
2022/06/20 11:35:05;;;;;;;6.65;4.30;;;;;;;20.05;57.89;96135.41;9982185;29;20059;-53
2022/06/20 11:40:41;;;;;;;6.28;4.68;;;;;;;20.04;57.90;96142.72;9959995;29;20403;-54
2022/06/20 11:46:13;;;;;;;6.30;4.10;;;;;;;20.04;57.83;96131.91;9947465;29;20063;-53
2022/06/20 11:51:51;;;;;;;7.07;4.35;;;;;;;20.05;57.87;96105.66;9948634;29;20062;-53
2022/06/20 11:57:26;;;;;;;5.23;4.20;;;;;;;20.05;57.99;96125.38;9948889;29;20132;-53
2022/06/20 12:03:13;;;;;;;6.50;4.22;;;;;;;20.04;57.82;96102.16;9947092;29;20071;-53
2022/06/20 12:08:39;;;;;;;5.15;4.15;;;;;;;20.06;58.01;96145.09;9946701;29;20047;-50
2022/06/20 12:14:04;;;;;;;5.38;4.57;;;;;;;20.06;57.89;96131.56;9958104;29;20116;-53
2022/06/20 12:25:41;;;;;;;5.22;3.90;;;;;;;20.05;57.94;96119.97;9952209;29;20059;-53
2022/06/20 12:31:11;;;;;;;5.47;3.72;;;;;;;20.06;57.88;96139.69;9943531;29;20078;-54
2022/06/20 12:36:39;;;;;;;5.10;4.32;;;;;;;20.08;57.99;96153.66;9930410;29;20124;-54
2022/06/20 12:42:05;;;;;;;6.03;4.05;;;;;;;20.07;57.95;96154.75;9945560;29;20046;-53
2022/06/20 12:47:49;;;;;;;4.70;4.00;;;;;;;20.08;57.98;96142.84;9938294;29;20091;-53
2022/06/20 12:53:21;;;;;;;5.82;4.00;;;;;;;20.08;57.93;96137.44;9930100;29;20522;-53
2022/06/20 12:58:43;;;;;;;4.57;3.67;;;;;;;20.09;57.97;96125.47;9956751;29;20055;-53
2022/06/20 13:04:05;;;;;;;5.82;4.60;;;;;;;20.09;57.96;96114.66;9942617;29;20077;-53
2022/06/20 13:09:58;;;;;;;5.32;4.18;;;;;;;20.10;57.96;96110.81;9943259;29;20415;-54
2022/06/20 13:15:29;;;;;;;4.82;4.07;;;;;;;20.10;57.93;96089.97;9954529;29;20079;-53
2022/06/20 13:20:57;;;;;;;5.38;3.90;;;;;;;20.10;58.03;96067.56;9930275;29;20058;-53
2022/06/20 13:26:29;;;;;;;4.65;3.67;;;;;;;20.10;58.45;96054.81;9940891;29;20115;-53
2022/06/20 13:32:09;;;;;;;5.20;4.00;;;;;;;20.07;58.20;96070.94;9939458;29;20426;-53
2022/06/20 13:38:13;;;;;;;3.88;3.35;;;;;;;20.03;59.17;96068.16;9937532;29;20102;-51
2022/06/20 13:43:54;;;;;;;4.63;3.78;;;;;;;20.05;58.93;96084.03;9924022;29;20071;-53
2022/06/20 13:49:25;;;;;;;4.57;4.00;;;;;;;20.00;57.69;96127.53;9932938;29;20070;-53
2022/06/20 13:55:13;;;;;;;4.32;3.63;;;;;;;20.01;59.07;96105.56;9927087;29;20567;-50
2022/06/20 14:00:34;;;;;;;6.03;4.00;;;;;;;20.05;58.82;96067.81;9936371;29;20047;-53
2022/06/20 14:06:11;;;;;;;4.30;3.78;;;;;;;20.06;58.74;96078.28;9951302;29;20094;-53
2022/06/20 14:11:40;;;;;;;6.10;3.70;;;;;;;19.99;57.89;96151.06;9938164;29;20398;-53
2022/06/20 14:17:21;;;;;;;5.97;3.90;;;;;;;20.00;58.37;96228.34;9956280;29;20066;-53
2022/06/20 14:22:44;;;;;;;4.70;3.45;;;;;;;20.04;58.50;96250.09;9935499;29;20093;-53
2022/06/20 14:28:15;;;;;;;4.35;3.58;;;;;;;20.06;58.04;96291.88;9950767;29;20427;-54
2022/06/20 14:33:43;;;;;;;4.85;3.45;;;;;;;19.99;57.20;96291.66;9925682;29;20059;-53
2022/06/20 14:39:18;;;;;;;5.53;3.33;;;;;;;20.00;57.73;96278.94;9931409;29;20051;-53
2022/06/20 14:44:42;;;;;;;4.05;3.35;;;;;;;20.02;57.62;96317.25;9980458;29;20062;-52
2022/06/20 14:50:16;;;;;;;4.18;3.25;;;;;;;20.05;57.44;96293.03;9990388;29;20054;-53
2022/06/20 14:56:02;;;;;;;3.58;3.00;;;;;;;20.00;55.71;96330.31;9946499;29;20055;-51
2022/06/20 15:01:49;;;;;;;4.10;3.40;;;;;;;19.99;56.98;96334.13;9949766;29;20503;-53
2022/06/20 15:07:14;;;;;;;4.05;3.22;;;;;;;20.05;56.98;96325.47;9936203;29;20073;-52
2022/06/20 15:12:39;;;;;;;4.43;2.95;;;;;;;20.07;56.50;96330.53;9950226;29;20116;-52
2022/06/20 15:18:24;;;;;;;5.05;3.10;;;;;;;20.02;56.62;96349.69;9942594;29;20058;-53
2022/06/20 15:24:22;;;;;;;3.92;3.10;;;;;;;20.03;56.75;96362.88;9956928;29;20070;-53
2022/06/20 15:30:13;;;;;;;2.85;2.65;;;;;;;20.05;56.51;96354.41;9887530;29;20403;-53
2022/06/20 15:35:54;;;;;;;3.50;2.83;;;;;;;20.08;56.39;96375.38;9937238;29;20067;-54
2022/06/20 15:41:13;;;;;;;5.03;3.10;;;;;;;20.08;56.26;96375.38;9980419;29;20051;-51
2022/06/20 15:46:35;;;;;;;3.45;2.67;;;;;;;20.09;56.38;96387.75;9971489;29;20058;-54
2022/06/20 15:52:26;;;;;;;4.07;3.00;;;;;;;20.10;56.73;96392.06;9966456;29;20556;-55
2022/06/20 15:58:05;;;;;;;9.38;5.55;;;;;;;20.09;57.81;96398.56;9953309;29;20065;-51
2022/06/20 16:03:40;;;;;;;9.45;6.95;;;;;;;20.10;59.00;96419.88;9943324;29;20419;-56
2022/06/20 16:09:06;;;;;;;11.10;7.28;;;;;;;20.09;60.27;96410.22;9918003;29;20100;-56
2022/06/20 16:14:29;;;;;;;7.40;6.40;;;;;;;20.09;61.00;96410.22;9940593;29;20118;-59
2022/06/20 16:19:48;;;;;;;8.30;6.22;;;;;;;20.05;61.33;96403.09;9909191;29;20116;-54
2022/06/20 16:25:07;;;;;;;5.30;4.80;;;;;;;20.04;61.05;96412.34;9933801;29;20051;-59
2022/06/20 16:30:35;;;;;;;4.70;3.72;;;;;;;20.02;60.81;96426.19;9930528;29;20059;-57
2022/06/20 16:36:16;;;;;;;4.45;2.90;;;;;;;20.00;60.80;96449.28;9923652;29;20065;-49
2022/06/20 16:41:45;;;;;;;4.63;2.55;;;;;;;20.00;60.52;96439.25;9947471;29;20050;-53
2022/06/20 16:47:30;;;;;;;2.35;1.83;;;;;;;20.00;60.83;96444.66;9939713;29;20692;-53
2022/06/20 16:52:52;;;;;;;3.47;1.45;;;;;;;20.00;60.69;96450.06;9928945;29;20050;-52
2022/06/20 16:58:13;;;;;;;2.58;1.35;;;;;;;20.01;60.14;96432.69;9931596;29;20047;-48
2022/06/20 17:03:45;;;;;;;1.17;1.10;;;;;;;20.00;59.76;96439.25;9926714;29;20058;-48
2022/06/20 17:09:18;;;;;;;1.88;0.90;;;;;;;19.99;59.61;96436.88;9923273;29;20091;-53
2022/06/20 17:14:59;;;;;;;0.85;0.80;;;;;;;19.95;59.63;96442.16;9923154;29;20055;-50
2022/06/20 17:20:42;;;;;;;1.83;0.80;;;;;;;19.90;59.25;96445.09;9921623;29;20111;-53
2022/06/20 17:26:17;;;;;;;2.25;0.70;;;;;;;19.90;59.52;96443.19;9903560;29;20392;-51
2022/06/20 17:31:42;;;;;;;1.92;0.75;;;;;;;19.93;59.07;96437.13;9919398;29;20059;-51
2022/06/20 17:37:40;;;;;;;2.83;1.00;;;;;;;19.95;58.86;96429.44;9923618;29;20088;-51
2022/06/20 17:43:16;;;;;;;0.70;0.70;;;;;;;19.97;58.76;96429.09;9913844;29;20131;-50
2022/06/20 17:48:54;;;;;;;0.95;0.80;;;;;;;20.00;58.75;96449.28;9910197;29;20074;-51
2022/06/20 17:54:29;;;;;;;0.60;0.60;;;;;;;20.00;58.62;96454.69;9911581;29;20488;-52
2022/06/20 18:00:05;;;;;;;0.98;0.85;;;;;;;20.01;58.60;96465.16;9906258;29;20416;-53
2022/06/20 18:05:29;;;;;;;1.00;0.70;;;;;;;20.01;58.58;96461.66;9926352;29;20051;-50
2022/06/20 18:10:54;;;;;;;0.98;0.90;;;;;;;20.01;58.52;96475.97;9918749;29;20068;-53
2022/06/20 18:16:37;;;;;;;1.45;0.80;;;;;;;20.02;58.57;96495.69;9935297;29;20051;-51
2022/06/20 18:22:01;;;;;;;0.88;0.88;;;;;;;20.02;58.54;96496.50;9935101;29;20460;-53
2022/06/20 18:27:27;;;;;;;1.75;0.65;;;;;;;20.03;58.47;96491.84;9918526;29;20135;-52
2022/06/20 18:32:50;;;;;;;8.13;0.85;;;;;;;20.03;58.41;96502.69;9918033;29;20423;-53
2022/06/20 18:38:13;;;;;;;4.00;0.70;;;;;;;20.03;58.64;96508.09;9910381;29;20134;-53
2022/06/20 18:43:42;;;;;;;5.28;0.70;;;;;;;20.02;58.62;96512.72;9924829;29;20058;-50
2022/06/20 18:49:24;;;;;;;3.50;0.93;;;;;;;20.02;58.64;96504.59;9944185;29;20057;-53
2022/06/20 18:54:49;;;;;;;3.17;0.60;;;;;;;20.02;58.72;96511.94;9942918;29;20703;-51
2022/06/20 19:00:15;;;;;;;3.60;0.90;;;;;;;20.03;58.82;96532.41;9950045;29;20503;-50
2022/06/20 19:05:44;;;;;;;3.90;0.70;;;;;;;20.02;59.03;96539.75;9930229;29;20085;-53
2022/06/20 19:11:24;;;;;;;2.22;0.60;;;;;;;20.01;59.10;96570.59;9923134;29;20063;-52
2022/06/20 19:17:23;;;;;;;1.38;0.60;;;;;;;20.01;58.97;96570.59;9932976;29;20062;-53
2022/06/20 19:23:01;;;;;;;0.50;0.50;;;;;;;20.00;58.73;96574.44;9906422;29;20063;-52
2022/06/20 19:28:37;;;;;;;0.40;0.40;;;;;;;19.99;58.18;96577.47;9942525;29;20063;-53
2022/06/20 19:34:31;;;;;;;1.05;0.50;;;;;;;19.98;58.10;96576.69;9946526;29;20060;-53
2022/06/20 19:40:05;;;;;;;1.50;0.60;;;;;;;19.97;57.81;96588.63;9940246;29;20219;-53
2022/06/20 19:45:49;;;;;;;1.23;0.60;;;;;;;19.94;57.32;96609.00;9916264;29;20058;-54
2022/06/20 19:51:24;;;;;;;1.13;0.60;;;;;;;19.92;57.25;96608.53;9932820;29;20055;-53
2022/06/20 19:57:10;;;;;;;1.00;0.57;;;;;;;19.91;57.09;96620.47;9937766;29;20088;-53
2022/06/20 20:02:30;;;;;;;1.80;0.60;;;;;;;19.90;56.82;96629.72;9921624;29;20182;-52
2022/06/20 20:07:51;;;;;;;1.35;0.50;;;;;;;19.88;56.75;96640.06;9934050;29;20047;-53
2022/06/20 20:13:18;;;;;;;0.68;0.50;;;;;;;19.89;56.70;96625.41;9918136;29;20078;-53
2022/06/20 20:18:40;;;;;;;0.80;0.50;;;;;;;19.88;56.58;96636.56;9920999;29;20132;-52
2022/06/20 20:24:05;;;;;;;0.70;0.50;;;;;;;19.86;56.29;96638.81;9918647;29;20076;-52
2022/06/20 20:29:43;;;;;;;0.43;0.40;;;;;;;19.86;56.29;96645.00;9923757;29;20059;-53
2022/06/20 20:35:18;;;;;;;0.73;0.50;;;;;;;19.84;56.27;96641.84;9913123;29;20052;-51
2022/06/20 20:40:47;;;;;;;2.28;0.50;;;;;;;19.82;56.18;96638.69;9906238;29;20112;-54
2022/06/20 20:46:23;;;;;;;1.90;0.40;;;;;;;19.82;55.77;96660.31;9928724;29;20054;-52
2022/06/20 20:51:54;;;;;;;1.25;0.40;;;;;;;19.81;55.55;96656.00;9901459;29;20075;-53
2022/06/20 20:57:19;;;;;;;1.02;0.50;;;;;;;19.77;55.24;96652.38;9927401;29;20050;-52
2022/06/20 21:02:42;;;;;;;0.93;0.40;;;;;;;19.79;55.67;96646.66;9907720;29;20067;-53
2022/06/20 21:08:18;;;;;;;2.70;0.47;;;;;;;19.82;55.91;96644.09;9914210;29;20563;-53
2022/06/20 21:13:42;;;;;;;1.30;0.40;;;;;;;19.85;56.16;96643.41;9929798;29;20098;-53
2022/06/20 21:19:32;;;;;;;0.40;0.30;;;;;;;19.87;56.36;96651.19;9937983;29;20057;-52
2022/06/20 21:24:56;;;;;;;2.38;0.30;;;;;;;19.87;56.34;96657.41;9937524;29;20474;-52
2022/06/20 21:30:19;;;;;;;0.40;0.40;;;;;;;19.87;56.58;96665.50;9950188;29;20499;-53
2022/06/20 21:35:51;;;;;;;0.40;0.40;;;;;;;19.89;56.61;96674.06;9944003;29;20059;-54
2022/06/20 21:41:11;;;;;;;0.57;0.40;;;;;;;19.90;56.76;96675.69;9957006;29;20051;-53
2022/06/20 21:46:30;;;;;;;0.80;0.50;;;;;;;19.89;56.92;96676.78;9949118;29;20411;-52
2022/06/20 21:51:52;;;;;;;0.43;0.30;;;;;;;19.89;57.10;96671.38;9941702;29;20089;-52
2022/06/20 21:57:24;;;;;;;0.43;0.30;;;;;;;19.90;57.12;96672.97;9925674;29;20063;-53
2022/06/20 22:08:29;;;;;;;0.40;0.30;;;;;;;19.90;57.25;96683.78;9945868;29;20069;-53
2022/06/20 22:13:56;;;;;;;1.13;0.38;;;;;;;19.90;57.39;96683.78;9954480;29;20062;-53
2022/06/20 22:19:15;;;;;;;0.50;0.50;;;;;;;19.88;57.34;96691.44;9963770;29;20081;-53
2022/06/20 22:24:46;;;;;;;0.47;0.30;;;;;;;19.90;57.44;96693.81;9938980;29;20451;-52
2022/06/20 22:30:30;;;;;;;0.50;0.40;;;;;;;19.88;57.44;96680.63;9941020;29;20070;-52
2022/06/20 22:35:51;;;;;;;0.52;0.32;;;;;;;19.89;57.43;96703.03;9936743;29;20107;-53
2022/06/20 22:41:24;;;;;;;0.40;0.25;;;;;;;19.90;57.45;96691.13;9949378;29;20067;-53
2022/06/20 22:46:56;;;;;;;0.32;0.30;;;;;;;19.89;57.35;96684.88;9927563;29;20054;-52
2022/06/20 22:52:29;;;;;;;0.40;0.40;;;;;;;19.90;57.29;96704.63;9948699;29;20755;-53
2022/06/20 22:57:56;;;;;;;1.42;0.40;;;;;;;19.88;57.14;96701.47;9942357;29;20059;-53
2022/06/20 23:03:21;;;;;;;0.47;0.40;;;;;;;19.88;57.17;96706.88;9914643;29;20066;-51
2022/06/20 23:08:40;;;;;;;0.73;0.40;;;;;;;19.87;57.03;96703.34;9941529;29;20059;-53
2022/06/20 23:14:00;;;;;;;0.47;0.30;;;;;;;19.88;56.96;96714.97;9952160;29;20652;-53
2022/06/20 23:19:32;;;;;;;1.05;0.30;;;;;;;19.87;56.69;96716.88;9958862;29;20652;-50
2022/06/20 23:24:57;;;;;;;0.40;0.35;;;;;;;19.87;56.78;96714.16;9950479;29;20149;-53
2022/06/20 23:30:18;;;;;;;0.93;0.40;;;;;;;19.86;56.59;96714.53;9925450;29;20176;-53
2022/06/20 23:35:40;;;;;;;1.20;0.38;;;;;;;19.86;56.54;96703.69;9954494;29;20054;-53
2022/06/20 23:41:01;;;;;;;0.20;0.20;;;;;;;19.86;56.60;96715.31;9953946;29;20066;-53
2022/06/20 23:46:25;;;;;;;0.40;0.40;;;;;;;19.87;56.54;96713.38;9942270;29;20055;-53
2022/06/20 23:51:45;;;;;;;0.20;0.20;;;;;;;19.86;56.32;96709.91;9976169;29;20123;-52
2022/06/20 23:57:05;;;;;;;0.40;0.40;;;;;;;19.85;56.20;96707.50;9956148;29;20059;-51
